sensor_id;sensor_type;location;lat;lon;timestamp;temperature;humidity
20726;DHT22;10524;48.132;8.518;2023-04-24T00:00:08;9.20;99.90
20726;DHT22;10524;48.132;8.518;2023-04-24T00:02:38;9.20;99.90
20726;DHT22;10524;48.132;8.518;2023-04-24T00:05:07;9.20;99.90
20726;DHT22;10524;48.132;8.518;2023-04-24T00:07:34;9.20;99.90
20726;DHT22;10524;48.132;8.518;2023-04-24T00:10:00;9.10;99.90
20726;DHT22;10524;48.132;8.518;2023-04-24T00:12:26;9.10;99.90
20726;DHT22;10524;48.132;8.518;2023-04-24T00:14:52;9.10;99.90
20726;DHT22;10524;48.132;8.518;2023-04-24T00:17:18;9.00;99.90
20726;DHT22;10524;48.132;8.518;2023-04-24T00:19:47;9.00;99.90
20726;DHT22;10524;48.132;8.518;2023-04-24T00:22:13;8.90;99.90
20726;DHT22;10524;48.132;8.518;2023-04-24T00:24:40;8.90;99.90
20726;DHT22;10524;48.132;8.518;2023-04-24T00:27:06;8.90;99.90
20726;DHT22;10524;48.132;8.518;2023-04-24T00:29:31;8.80;99.90
20726;DHT22;10524;48.132;8.518;2023-04-24T00:31:57;8.80;99.90
20726;DHT22;10524;48.132;8.518;2023-04-24T00:34:23;8.80;99.90
20726;DHT22;10524;48.132;8.518;2023-04-24T00:36:49;8.80;99.90
20726;DHT22;10524;48.132;8.518;2023-04-24T00:39:18;8.90;99.90
20726;DHT22;10524;48.132;8.518;2023-04-24T00:41:44;8.90;99.90
20726;DHT22;10524;48.132;8.518;2023-04-24T00:44:10;8.90;99.90
20726;DHT22;10524;48.132;8.518;2023-04-24T00:46:36;8.80;99.90
20726;DHT22;10524;48.132;8.518;2023-04-24T00:49:02;8.80;99.90
20726;DHT22;10524;48.132;8.518;2023-04-24T00:51:28;8.80;99.90
20726;DHT22;10524;48.132;8.518;2023-04-24T00:53:53;8.80;99.90
20726;DHT22;10524;48.132;8.518;2023-04-24T00:56:19;8.80;99.90
20726;DHT22;10524;48.132;8.518;2023-04-24T00:58:45;8.80;99.90
20726;DHT22;10524;48.132;8.518;2023-04-24T01:01:11;8.80;99.90
20726;DHT22;10524;48.132;8.518;2023-04-24T01:03:37;8.80;99.90
20726;DHT22;10524;48.132;8.518;2023-04-24T01:06:04;8.80;99.90
20726;DHT22;10524;48.132;8.518;2023-04-24T01:08:30;8.80;99.90
20726;DHT22;10524;48.132;8.518;2023-04-24T01:10:57;8.80;99.90
20726;DHT22;10524;48.132;8.518;2023-04-24T01:13:23;8.80;99.90
20726;DHT22;10524;48.132;8.518;2023-04-24T01:15:49;8.80;99.90
20726;DHT22;10524;48.132;8.518;2023-04-24T01:18:15;8.80;99.90
20726;DHT22;10524;48.132;8.518;2023-04-24T01:20:42;8.80;99.90
20726;DHT22;10524;48.132;8.518;2023-04-24T01:23:09;8.70;99.90
20726;DHT22;10524;48.132;8.518;2023-04-24T01:25:36;8.70;99.90
20726;DHT22;10524;48.132;8.518;2023-04-24T01:28:02;8.80;99.90
20726;DHT22;10524;48.132;8.518;2023-04-24T01:30:27;8.70;99.90
20726;DHT22;10524;48.132;8.518;2023-04-24T01:32:53;8.70;99.90
20726;DHT22;10524;48.132;8.518;2023-04-24T01:35:20;8.50;99.90
20726;DHT22;10524;48.132;8.518;2023-04-24T01:37:45;8.40;99.90
20726;DHT22;10524;48.132;8.518;2023-04-24T01:40:11;8.30;99.90
20726;DHT22;10524;48.132;8.518;2023-04-24T01:42:40;8.30;99.90
20726;DHT22;10524;48.132;8.518;2023-04-24T01:45:06;8.30;99.90
20726;DHT22;10524;48.132;8.518;2023-04-24T01:47:33;8.20;99.90
20726;DHT22;10524;48.132;8.518;2023-04-24T01:49:59;8.10;99.90
20726;DHT22;10524;48.132;8.518;2023-04-24T01:52:25;8.00;99.90
20726;DHT22;10524;48.132;8.518;2023-04-24T01:54:50;7.90;99.90
20726;DHT22;10524;48.132;8.518;2023-04-24T01:57:17;7.80;99.90
20726;DHT22;10524;48.132;8.518;2023-04-24T01:59:44;7.70;99.90
20726;DHT22;10524;48.132;8.518;2023-04-24T02:02:09;7.70;99.90
20726;DHT22;10524;48.132;8.518;2023-04-24T02:04:35;7.60;99.90
20726;DHT22;10524;48.132;8.518;2023-04-24T02:07:00;7.60;99.90
20726;DHT22;10524;48.132;8.518;2023-04-24T02:09:26;7.50;99.90
20726;DHT22;10524;48.132;8.518;2023-04-24T02:11:52;7.50;99.90
20726;DHT22;10524;48.132;8.518;2023-04-24T02:14:17;7.50;99.90
20726;DHT22;10524;48.132;8.518;2023-04-24T02:16:44;7.50;99.90
20726;DHT22;10524;48.132;8.518;2023-04-24T02:19:10;7.50;99.90
20726;DHT22;10524;48.132;8.518;2023-04-24T02:21:36;7.50;99.90
20726;DHT22;10524;48.132;8.518;2023-04-24T02:24:01;7.50;99.90
20726;DHT22;10524;48.132;8.518;2023-04-24T02:26:27;7.50;99.90
20726;DHT22;10524;48.132;8.518;2023-04-24T02:28:53;7.50;99.90
20726;DHT22;10524;48.132;8.518;2023-04-24T02:31:18;7.50;99.90
20726;DHT22;10524;48.132;8.518;2023-04-24T02:33:44;7.40;99.90
20726;DHT22;10524;48.132;8.518;2023-04-24T02:36:10;7.40;99.90
20726;DHT22;10524;48.132;8.518;2023-04-24T02:38:35;7.50;99.90
20726;DHT22;10524;48.132;8.518;2023-04-24T02:41:01;7.50;99.90
20726;DHT22;10524;48.132;8.518;2023-04-24T02:43:28;7.50;99.90
20726;DHT22;10524;48.132;8.518;2023-04-24T02:45:54;7.50;99.90
20726;DHT22;10524;48.132;8.518;2023-04-24T02:48:19;7.50;99.90
20726;DHT22;10524;48.132;8.518;2023-04-24T02:50:46;7.50;99.90
20726;DHT22;10524;48.132;8.518;2023-04-24T02:53:12;7.50;99.90
20726;DHT22;10524;48.132;8.518;2023-04-24T02:55:37;7.50;99.90
20726;DHT22;10524;48.132;8.518;2023-04-24T02:58:03;7.50;99.90
20726;DHT22;10524;48.132;8.518;2023-04-24T03:00:29;7.50;99.90
20726;DHT22;10524;48.132;8.518;2023-04-24T03:02:55;7.50;99.90
20726;DHT22;10524;48.132;8.518;2023-04-24T03:05:21;7.50;99.90
20726;DHT22;10524;48.132;8.518;2023-04-24T03:07:46;7.40;99.90
20726;DHT22;10524;48.132;8.518;2023-04-24T03:10:12;7.50;99.90
20726;DHT22;10524;48.132;8.518;2023-04-24T03:12:37;7.50;99.90
20726;DHT22;10524;48.132;8.518;2023-04-24T03:15:03;7.50;99.90
20726;DHT22;10524;48.132;8.518;2023-04-24T03:17:29;7.40;99.90
20726;DHT22;10524;48.132;8.518;2023-04-24T03:19:55;7.40;99.90
20726;DHT22;10524;48.132;8.518;2023-04-24T03:22:20;7.40;99.90
20726;DHT22;10524;48.132;8.518;2023-04-24T03:24:46;7.40;99.90
20726;DHT22;10524;48.132;8.518;2023-04-24T03:27:12;7.30;99.90
20726;DHT22;10524;48.132;8.518;2023-04-24T03:29:37;7.30;99.90
20726;DHT22;10524;48.132;8.518;2023-04-24T03:32:03;7.30;99.90
20726;DHT22;10524;48.132;8.518;2023-04-24T03:34:28;7.30;99.90
20726;DHT22;10524;48.132;8.518;2023-04-24T03:36:54;7.30;99.90
20726;DHT22;10524;48.132;8.518;2023-04-24T03:39:20;7.30;99.90
20726;DHT22;10524;48.132;8.518;2023-04-24T03:41:45;7.30;99.90
20726;DHT22;10524;48.132;8.518;2023-04-24T03:44:11;7.30;99.90
20726;DHT22;10524;48.132;8.518;2023-04-24T03:46:36;7.30;99.90
20726;DHT22;10524;48.132;8.518;2023-04-24T03:49:02;7.30;99.90
20726;DHT22;10524;48.132;8.518;2023-04-24T03:51:28;7.20;99.90
20726;DHT22;10524;48.132;8.518;2023-04-24T03:53:55;7.20;99.90
20726;DHT22;10524;48.132;8.518;2023-04-24T03:56:21;7.20;99.90
20726;DHT22;10524;48.132;8.518;2023-04-24T03:58:46;7.20;99.90
20726;DHT22;10524;48.132;8.518;2023-04-24T04:01:12;7.20;99.90
20726;DHT22;10524;48.132;8.518;2023-04-24T04:03:38;7.10;99.90
20726;DHT22;10524;48.132;8.518;2023-04-24T04:06:04;7.20;99.90
20726;DHT22;10524;48.132;8.518;2023-04-24T04:08:30;7.20;99.90
20726;DHT22;10524;48.132;8.518;2023-04-24T04:10:55;7.10;99.90
20726;DHT22;10524;48.132;8.518;2023-04-24T04:13:21;7.10;99.90
20726;DHT22;10524;48.132;8.518;2023-04-24T04:15:46;7.00;99.90
20726;DHT22;10524;48.132;8.518;2023-04-24T04:18:12;6.90;99.90
20726;DHT22;10524;48.132;8.518;2023-04-24T04:20:38;7.00;99.90
20726;DHT22;10524;48.132;8.518;2023-04-24T04:23:03;7.00;99.90
20726;DHT22;10524;48.132;8.518;2023-04-24T04:25:29;7.10;99.90
20726;DHT22;10524;48.132;8.518;2023-04-24T04:27:54;7.10;99.90
20726;DHT22;10524;48.132;8.518;2023-04-24T04:30:20;7.20;99.90
20726;DHT22;10524;48.132;8.518;2023-04-24T04:32:46;7.20;99.90
20726;DHT22;10524;48.132;8.518;2023-04-24T04:35:12;7.20;99.90
20726;DHT22;10524;48.132;8.518;2023-04-24T04:37:38;7.10;99.90
20726;DHT22;10524;48.132;8.518;2023-04-24T04:40:04;6.70;99.90
20726;DHT22;10524;48.132;8.518;2023-04-24T04:42:34;6.30;99.90
20726;DHT22;10524;48.132;8.518;2023-04-24T04:45:00;6.10;99.90
20726;DHT22;10524;48.132;8.518;2023-04-24T04:47:26;6.00;99.90
20726;DHT22;10524;48.132;8.518;2023-04-24T04:49:53;5.90;99.90
20726;DHT22;10524;48.132;8.518;2023-04-24T04:52:19;5.70;99.90
20726;DHT22;10524;48.132;8.518;2023-04-24T04:54:45;5.60;99.90
20726;DHT22;10524;48.132;8.518;2023-04-24T04:57:11;5.60;99.90
20726;DHT22;10524;48.132;8.518;2023-04-24T04:59:37;5.60;99.90
20726;DHT22;10524;48.132;8.518;2023-04-24T05:02:03;5.60;99.90
20726;DHT22;10524;48.132;8.518;2023-04-24T05:04:28;5.60;99.90
20726;DHT22;10524;48.132;8.518;2023-04-24T05:06:54;5.60;99.90
20726;DHT22;10524;48.132;8.518;2023-04-24T05:09:20;5.70;99.90
20726;DHT22;10524;48.132;8.518;2023-04-24T05:11:45;5.70;99.90
20726;DHT22;10524;48.132;8.518;2023-04-24T05:14:11;5.80;99.90
20726;DHT22;10524;48.132;8.518;2023-04-24T05:16:38;5.80;99.90
20726;DHT22;10524;48.132;8.518;2023-04-24T05:19:04;5.90;99.90
20726;DHT22;10524;48.132;8.518;2023-04-24T05:21:30;5.90;99.90
20726;DHT22;10524;48.132;8.518;2023-04-24T05:23:56;5.90;99.90
20726;DHT22;10524;48.132;8.518;2023-04-24T05:26:22;5.90;99.90
20726;DHT22;10524;48.132;8.518;2023-04-24T05:28:48;6.00;99.90
20726;DHT22;10524;48.132;8.518;2023-04-24T05:31:13;6.20;99.90
20726;DHT22;10524;48.132;8.518;2023-04-24T05:33:39;6.40;99.90
20726;DHT22;10524;48.132;8.518;2023-04-24T05:36:06;6.40;99.90
20726;DHT22;10524;48.132;8.518;2023-04-24T05:38:32;6.50;99.90
20726;DHT22;10524;48.132;8.518;2023-04-24T05:40:57;6.50;99.90
20726;DHT22;10524;48.132;8.518;2023-04-24T05:43:23;7.00;99.90
20726;DHT22;10524;48.132;8.518;2023-04-24T05:45:49;7.90;99.90
20726;DHT22;10524;48.132;8.518;2023-04-24T05:48:14;9.50;99.90
20726;DHT22;10524;48.132;8.518;2023-04-24T05:50:41;11.10;99.90
20726;DHT22;10524;48.132;8.518;2023-04-24T05:53:06;11.70;99.90
20726;DHT22;10524;48.132;8.518;2023-04-24T05:55:32;11.60;99.90
20726;DHT22;10524;48.132;8.518;2023-04-24T05:57:58;10.70;99.90
20726;DHT22;10524;48.132;8.518;2023-04-24T06:00:24;10.30;99.90
20726;DHT22;10524;48.132;8.518;2023-04-24T06:02:50;10.30;99.90
20726;DHT22;10524;48.132;8.518;2023-04-24T06:05:17;10.00;99.90
20726;DHT22;10524;48.132;8.518;2023-04-24T06:07:43;9.70;99.90
20726;DHT22;10524;48.132;8.518;2023-04-24T06:10:09;9.40;99.90
20726;DHT22;10524;48.132;8.518;2023-04-24T06:12:35;9.50;99.90
20726;DHT22;10524;48.132;8.518;2023-04-24T06:15:00;9.80;99.90
20726;DHT22;10524;48.132;8.518;2023-04-24T06:17:26;9.70;99.90
20726;DHT22;10524;48.132;8.518;2023-04-24T06:19:52;9.20;99.90
20726;DHT22;10524;48.132;8.518;2023-04-24T06:22:17;8.60;99.90
20726;DHT22;10524;48.132;8.518;2023-04-24T06:24:43;8.30;99.90
20726;DHT22;10524;48.132;8.518;2023-04-24T06:27:08;8.00;99.90
20726;DHT22;10524;48.132;8.518;2023-04-24T06:29:35;7.80;99.90
20726;DHT22;10524;48.132;8.518;2023-04-24T06:32:01;7.60;99.90
20726;DHT22;10524;48.132;8.518;2023-04-24T06:34:26;7.70;99.90
20726;DHT22;10524;48.132;8.518;2023-04-24T06:36:52;7.80;99.90
20726;DHT22;10524;48.132;8.518;2023-04-24T06:39:18;8.20;99.90
20726;DHT22;10524;48.132;8.518;2023-04-24T06:41:43;8.90;99.90
20726;DHT22;10524;48.132;8.518;2023-04-24T06:44:09;9.60;99.90
20726;DHT22;10524;48.132;8.518;2023-04-24T06:46:35;10.10;99.90
20726;DHT22;10524;48.132;8.518;2023-04-24T06:49:00;9.90;99.90
20726;DHT22;10524;48.132;8.518;2023-04-24T06:51:26;9.90;99.90
20726;DHT22;10524;48.132;8.518;2023-04-24T06:53:55;10.30;99.90
20726;DHT22;10524;48.132;8.518;2023-04-24T06:56:21;10.50;99.90
20726;DHT22;10524;48.132;8.518;2023-04-24T06:58:47;10.90;99.90
20726;DHT22;10524;48.132;8.518;2023-04-24T07:01:13;10.90;99.90
20726;DHT22;10524;48.132;8.518;2023-04-24T07:03:39;11.40;99.90
20726;DHT22;10524;48.132;8.518;2023-04-24T07:06:05;11.90;99.90
20726;DHT22;10524;48.132;8.518;2023-04-24T07:08:31;11.80;99.90
20726;DHT22;10524;48.132;8.518;2023-04-24T07:10:57;11.70;99.90
20726;DHT22;10524;48.132;8.518;2023-04-24T07:13:23;11.20;99.90
20726;DHT22;10524;48.132;8.518;2023-04-24T07:15:49;10.70;99.90
20726;DHT22;10524;48.132;8.518;2023-04-24T07:18:16;10.50;99.90
20726;DHT22;10524;48.132;8.518;2023-04-24T07:20:42;10.20;99.90
20726;DHT22;10524;48.132;8.518;2023-04-24T07:23:08;10.00;99.90
20726;DHT22;10524;48.132;8.518;2023-04-24T07:25:33;9.70;99.90
20726;DHT22;10524;48.132;8.518;2023-04-24T07:27:59;9.50;99.90
20726;DHT22;10524;48.132;8.518;2023-04-24T07:30:25;9.00;99.90
20726;DHT22;10524;48.132;8.518;2023-04-24T07:32:51;8.90;99.90
20726;DHT22;10524;48.132;8.518;2023-04-24T07:35:16;8.80;99.90
20726;DHT22;10524;48.132;8.518;2023-04-24T07:37:42;8.60;99.90
20726;DHT22;10524;48.132;8.518;2023-04-24T07:40:12;8.50;99.90
20726;DHT22;10524;48.132;8.518;2023-04-24T07:42:38;8.60;99.90
20726;DHT22;10524;48.132;8.518;2023-04-24T07:45:04;8.70;99.90
20726;DHT22;10524;48.132;8.518;2023-04-24T07:47:30;8.60;99.90
20726;DHT22;10524;48.132;8.518;2023-04-24T07:49:56;8.50;99.90
20726;DHT22;10524;48.132;8.518;2023-04-24T07:52:21;8.20;99.90
20726;DHT22;10524;48.132;8.518;2023-04-24T07:54:47;8.10;99.90
20726;DHT22;10524;48.132;8.518;2023-04-24T07:57:12;7.90;99.90
20726;DHT22;10524;48.132;8.518;2023-04-24T07:59:39;7.80;99.90
20726;DHT22;10524;48.132;8.518;2023-04-24T08:02:05;7.70;99.90
20726;DHT22;10524;48.132;8.518;2023-04-24T08:04:31;7.60;99.90
20726;DHT22;10524;48.132;8.518;2023-04-24T08:06:57;7.80;99.90
20726;DHT22;10524;48.132;8.518;2023-04-24T08:09:23;9.60;99.90
20726;DHT22;10524;48.132;8.518;2023-04-24T08:11:49;11.80;99.90
20726;DHT22;10524;48.132;8.518;2023-04-24T08:14:15;13.90;99.90
20726;DHT22;10524;48.132;8.518;2023-04-24T08:16:41;14.00;99.90
20726;DHT22;10524;48.132;8.518;2023-04-24T08:19:07;12.20;99.90
20726;DHT22;10524;48.132;8.518;2023-04-24T08:21:32;11.10;99.90
20726;DHT22;10524;48.132;8.518;2023-04-24T08:23:58;10.30;99.90
20726;DHT22;10524;48.132;8.518;2023-04-24T08:26:24;9.80;99.90
20726;DHT22;10524;48.132;8.518;2023-04-24T08:28:52;9.30;99.90
20726;DHT22;10524;48.132;8.518;2023-04-24T08:31:18;9.60;99.90
20726;DHT22;10524;48.132;8.518;2023-04-24T08:33:43;12.40;99.90
20726;DHT22;10524;48.132;8.518;2023-04-24T08:36:11;14.70;99.90
20726;DHT22;10524;48.132;8.518;2023-04-24T08:38:36;15.90;99.90
20726;DHT22;10524;48.132;8.518;2023-04-24T08:41:02;16.00;99.90
20726;DHT22;10524;48.132;8.518;2023-04-24T08:43:30;13.90;99.90
20726;DHT22;10524;48.132;8.518;2023-04-24T08:45:58;12.30;99.90
20726;DHT22;10524;48.132;8.518;2023-04-24T08:48:25;10.90;99.90
20726;DHT22;10524;48.132;8.518;2023-04-24T08:50:51;10.00;99.90
20726;DHT22;10524;48.132;8.518;2023-04-24T08:53:18;8.70;99.90
20726;DHT22;10524;48.132;8.518;2023-04-24T08:55:47;8.10;99.90
20726;DHT22;10524;48.132;8.518;2023-04-24T08:58:15;7.60;99.90
20726;DHT22;10524;48.132;8.518;2023-04-24T09:00:41;7.50;99.90
20726;DHT22;10524;48.132;8.518;2023-04-24T09:03:13;7.70;99.90
20726;DHT22;10524;48.132;8.518;2023-04-24T09:05:40;7.80;99.90
20726;DHT22;10524;48.132;8.518;2023-04-24T09:08:10;8.40;99.90
20726;DHT22;10524;48.132;8.518;2023-04-24T09:10:39;9.70;99.90
20726;DHT22;10524;48.132;8.518;2023-04-24T09:13:05;9.60;99.90
20726;DHT22;10524;48.132;8.518;2023-04-24T09:15:32;9.10;99.90
20726;DHT22;10524;48.132;8.518;2023-04-24T09:17:58;8.80;99.90
20726;DHT22;10524;48.132;8.518;2023-04-24T09:20:23;8.50;99.90
20726;DHT22;10524;48.132;8.518;2023-04-24T09:22:54;8.60;99.90
20726;DHT22;10524;48.132;8.518;2023-04-24T09:25:21;8.80;99.90
20726;DHT22;10524;48.132;8.518;2023-04-24T09:27:46;10.40;99.90
20726;DHT22;10524;48.132;8.518;2023-04-24T09:30:13;11.90;99.90
20726;DHT22;10524;48.132;8.518;2023-04-24T09:32:39;12.60;99.90
20726;DHT22;10524;48.132;8.518;2023-04-24T09:35:13;12.50;99.90
20726;DHT22;10524;48.132;8.518;2023-04-24T09:37:41;12.00;99.90
20726;DHT22;10524;48.132;8.518;2023-04-24T09:40:18;12.90;99.90
20726;DHT22;10524;48.132;8.518;2023-04-24T09:42:52;13.80;99.90
20726;DHT22;10524;48.132;8.518;2023-04-24T09:45:18;14.80;99.90
20726;DHT22;10524;48.132;8.518;2023-04-24T09:47:43;16.50;99.90
20726;DHT22;10524;48.132;8.518;2023-04-24T09:50:16;16.70;99.90
20726;DHT22;10524;48.132;8.518;2023-04-24T09:52:46;17.10;99.90
20726;DHT22;10524;48.132;8.518;2023-04-24T09:55:18;18.80;99.90
20726;DHT22;10524;48.132;8.518;2023-04-24T09:57:51;19.20;99.90
20726;DHT22;10524;48.132;8.518;2023-04-24T10:00:31;19.30;99.90
20726;DHT22;10524;48.132;8.518;2023-04-24T10:03:05;20.50;99.90
20726;DHT22;10524;48.132;8.518;2023-04-24T10:05:35;17.80;99.90
20726;DHT22;10524;48.132;8.518;2023-04-24T10:08:06;14.80;99.90
20726;DHT22;10524;48.132;8.518;2023-04-24T10:10:33;12.50;99.90
20726;DHT22;10524;48.132;8.518;2023-04-24T10:13:00;11.60;99.90
20726;DHT22;10524;48.132;8.518;2023-04-24T10:15:27;10.80;99.90
20726;DHT22;10524;48.132;8.518;2023-04-24T10:17:53;10.50;99.90
20726;DHT22;10524;48.132;8.518;2023-04-24T10:20:23;10.60;99.90
20726;DHT22;10524;48.132;8.518;2023-04-24T10:22:50;13.00;99.90
20726;DHT22;10524;48.132;8.518;2023-04-24T10:25:21;16.40;99.90
20726;DHT22;10524;48.132;8.518;2023-04-24T10:27:48;18.70;99.90
20726;DHT22;10524;48.132;8.518;2023-04-24T10:30:14;19.90;99.90
20726;DHT22;10524;48.132;8.518;2023-04-24T10:32:40;20.50;99.90
20726;DHT22;10524;48.132;8.518;2023-04-24T10:35:07;20.00;99.90
20726;DHT22;10524;48.132;8.518;2023-04-24T10:37:49;17.80;99.90
20726;DHT22;10524;48.132;8.518;2023-04-24T10:40:19;19.20;99.90
20726;DHT22;10524;48.132;8.518;2023-04-24T10:42:51;15.50;99.90
20726;DHT22;10524;48.132;8.518;2023-04-24T10:45:20;13.10;99.90
20726;DHT22;10524;48.132;8.518;2023-04-24T10:47:59;12.90;99.90
20726;DHT22;10524;48.132;8.518;2023-04-24T10:50:46;12.60;99.90
20726;DHT22;10524;48.132;8.518;2023-04-24T10:53:17;11.90;99.90
20726;DHT22;10524;48.132;8.518;2023-04-24T10:55:49;11.90;99.90
20726;DHT22;10524;48.132;8.518;2023-04-24T10:58:16;15.00;99.90
20726;DHT22;10524;48.132;8.518;2023-04-24T11:00:43;17.70;99.90
20726;DHT22;10524;48.132;8.518;2023-04-24T11:03:26;19.40;99.90
20726;DHT22;10524;48.132;8.518;2023-04-24T11:08:23;18.50;99.90
20726;DHT22;10524;48.132;8.518;2023-04-24T11:11:01;15.30;99.90
20726;DHT22;10524;48.132;8.518;2023-04-24T11:16:44;15.80;99.90
20726;DHT22;10524;48.132;8.518;2023-04-24T11:24:27;14.30;99.90
20726;DHT22;10524;48.132;8.518;2023-04-24T11:29:23;15.60;99.90
20726;DHT22;10524;48.132;8.518;2023-04-24T11:32:18;15.80;99.90
20726;DHT22;10524;48.132;8.518;2023-04-24T11:34:52;16.10;99.90
20726;DHT22;10524;48.132;8.518;2023-04-24T11:37:18;16.60;99.90
20726;DHT22;10524;48.132;8.518;2023-04-24T11:39:44;16.80;99.90
20726;DHT22;10524;48.132;8.518;2023-04-24T11:42:10;18.10;99.90
20726;DHT22;10524;48.132;8.518;2023-04-24T11:44:36;19.90;99.90
20726;DHT22;10524;48.132;8.518;2023-04-24T11:47:05;16.60;99.90
20726;DHT22;10524;48.132;8.518;2023-04-24T11:49:31;17.40;99.90
20726;DHT22;10524;48.132;8.518;2023-04-24T11:51:56;17.30;99.90
20726;DHT22;10524;48.132;8.518;2023-04-24T11:54:22;17.30;99.90
20726;DHT22;10524;48.132;8.518;2023-04-24T11:56:48;16.80;99.90
20726;DHT22;10524;48.132;8.518;2023-04-24T11:59:14;17.20;99.90
20726;DHT22;10524;48.132;8.518;2023-04-24T12:01:47;17.20;99.90
20726;DHT22;10524;48.132;8.518;2023-04-24T12:04:15;17.70;99.90
20726;DHT22;10524;48.132;8.518;2023-04-24T12:09:26;18.90;99.90
20726;DHT22;10524;48.132;8.518;2023-04-24T12:11:53;17.60;99.90
20726;DHT22;10524;48.132;8.518;2023-04-24T12:14:22;17.80;99.90
20726;DHT22;10524;48.132;8.518;2023-04-24T12:16:48;17.70;99.90
20726;DHT22;10524;48.132;8.518;2023-04-24T12:19:22;16.40;99.90
20726;DHT22;10524;48.132;8.518;2023-04-24T12:22:04;16.20;99.90
20726;DHT22;10524;48.132;8.518;2023-04-24T12:24:31;17.00;99.90
20726;DHT22;10524;48.132;8.518;2023-04-24T12:26:57;18.00;99.90
20726;DHT22;10524;48.132;8.518;2023-04-24T12:29:24;18.70;99.90
20726;DHT22;10524;48.132;8.518;2023-04-24T12:31:51;19.00;99.90
20726;DHT22;10524;48.132;8.518;2023-04-24T12:34:21;19.60;99.90
20726;DHT22;10524;48.132;8.518;2023-04-24T12:36:47;21.00;99.90
20726;DHT22;10524;48.132;8.518;2023-04-24T12:39:19;20.70;99.90
20726;DHT22;10524;48.132;8.518;2023-04-24T12:41:56;19.60;99.90
20726;DHT22;10524;48.132;8.518;2023-04-24T12:44:32;19.30;99.90
20726;DHT22;10524;48.132;8.518;2023-04-24T12:47:00;17.70;99.90
20726;DHT22;10524;48.132;8.518;2023-04-24T12:49:28;16.00;99.90
20726;DHT22;10524;48.132;8.518;2023-04-24T12:51:54;17.80;99.90
20726;DHT22;10524;48.132;8.518;2023-04-24T12:54:19;18.10;99.90
20726;DHT22;10524;48.132;8.518;2023-04-24T12:56:45;18.20;99.90
20726;DHT22;10524;48.132;8.518;2023-04-24T12:59:11;18.60;99.90
20726;DHT22;10524;48.132;8.518;2023-04-24T13:01:36;18.80;99.90
20726;DHT22;10524;48.132;8.518;2023-04-24T13:04:02;17.40;99.90
20726;DHT22;10524;48.132;8.518;2023-04-24T13:06:27;17.60;99.90
20726;DHT22;10524;48.132;8.518;2023-04-24T13:08:53;18.20;99.90
20726;DHT22;10524;48.132;8.518;2023-04-24T13:11:20;18.00;99.90
20726;DHT22;10524;48.132;8.518;2023-04-24T13:13:47;19.30;99.90
20726;DHT22;10524;48.132;8.518;2023-04-24T13:16:13;17.90;99.90
20726;DHT22;10524;48.132;8.518;2023-04-24T13:18:38;18.40;99.90
20726;DHT22;10524;48.132;8.518;2023-04-24T13:21:04;18.60;99.90
20726;DHT22;10524;48.132;8.518;2023-04-24T13:23:30;16.80;99.90
20726;DHT22;10524;48.132;8.518;2023-04-24T13:25:55;15.70;99.90
20726;DHT22;10524;48.132;8.518;2023-04-24T13:28:24;14.60;99.90
20726;DHT22;10524;48.132;8.518;2023-04-24T13:30:51;14.00;99.90
20726;DHT22;10524;48.132;8.518;2023-04-24T13:33:16;13.80;99.90
20726;DHT22;10524;48.132;8.518;2023-04-24T13:35:42;14.10;99.90
20726;DHT22;10524;48.132;8.518;2023-04-24T13:38:08;14.50;99.90
20726;DHT22;10524;48.132;8.518;2023-04-24T13:40:33;14.50;99.90
20726;DHT22;10524;48.132;8.518;2023-04-24T13:42:59;15.30;99.90
20726;DHT22;10524;48.132;8.518;2023-04-24T13:45:26;16.60;99.90
20726;DHT22;10524;48.132;8.518;2023-04-24T13:47:52;17.50;99.90
20726;DHT22;10524;48.132;8.518;2023-04-24T13:50:19;19.30;99.90
20726;DHT22;10524;48.132;8.518;2023-04-24T13:52:45;19.60;99.90
20726;DHT22;10524;48.132;8.518;2023-04-24T13:55:11;18.10;99.90
20726;DHT22;10524;48.132;8.518;2023-04-24T13:57:36;18.60;99.90
20726;DHT22;10524;48.132;8.518;2023-04-24T14:00:03;19.90;99.90
20726;DHT22;10524;48.132;8.518;2023-04-24T14:02:29;20.30;99.90
20726;DHT22;10524;48.132;8.518;2023-04-24T14:04:55;20.40;99.90
20726;DHT22;10524;48.132;8.518;2023-04-24T14:07:21;20.20;99.90
20726;DHT22;10524;48.132;8.518;2023-04-24T14:09:47;20.50;99.90
20726;DHT22;10524;48.132;8.518;2023-04-24T14:12:20;19.10;99.90
20726;DHT22;10524;48.132;8.518;2023-04-24T14:14:46;18.00;99.90
20726;DHT22;10524;48.132;8.518;2023-04-24T14:17:14;16.50;99.90
20726;DHT22;10524;48.132;8.518;2023-04-24T14:19:40;15.30;99.90
20726;DHT22;10524;48.132;8.518;2023-04-24T14:22:05;15.50;99.90
20726;DHT22;10524;48.132;8.518;2023-04-24T14:24:31;15.00;99.90
20726;DHT22;10524;48.132;8.518;2023-04-24T14:26:57;14.60;99.90
20726;DHT22;10524;48.132;8.518;2023-04-24T14:29:23;14.80;99.90
20726;DHT22;10524;48.132;8.518;2023-04-24T14:31:51;14.10;99.90
20726;DHT22;10524;48.132;8.518;2023-04-24T14:34:16;13.50;99.90
20726;DHT22;10524;48.132;8.518;2023-04-24T14:36:44;13.10;99.90
20726;DHT22;10524;48.132;8.518;2023-04-24T14:39:10;12.60;99.90
20726;DHT22;10524;48.132;8.518;2023-04-24T14:41:36;14.20;99.90
20726;DHT22;10524;48.132;8.518;2023-04-24T14:44:03;15.90;99.90
20726;DHT22;10524;48.132;8.518;2023-04-24T14:46:30;16.00;99.90
20726;DHT22;10524;48.132;8.518;2023-04-24T14:48:59;14.50;99.90
20726;DHT22;10524;48.132;8.518;2023-04-24T14:51:24;13.50;99.90
20726;DHT22;10524;48.132;8.518;2023-04-24T14:53:51;13.10;99.90
20726;DHT22;10524;48.132;8.518;2023-04-24T14:56:17;12.50;99.90
20726;DHT22;10524;48.132;8.518;2023-04-24T14:58:42;12.20;99.90
20726;DHT22;10524;48.132;8.518;2023-04-24T15:01:08;12.10;99.90
20726;DHT22;10524;48.132;8.518;2023-04-24T15:03:34;12.00;99.90
20726;DHT22;10524;48.132;8.518;2023-04-24T15:05:59;12.10;99.90
20726;DHT22;10524;48.132;8.518;2023-04-24T15:08:26;12.20;99.90
20726;DHT22;10524;48.132;8.518;2023-04-24T15:10:52;12.10;99.90
20726;DHT22;10524;48.132;8.518;2023-04-24T15:13:18;12.00;99.90
20726;DHT22;10524;48.132;8.518;2023-04-24T15:15:46;12.00;99.90
20726;DHT22;10524;48.132;8.518;2023-04-24T15:18:11;12.00;99.90
20726;DHT22;10524;48.132;8.518;2023-04-24T15:20:37;11.90;99.90
20726;DHT22;10524;48.132;8.518;2023-04-24T15:23:05;11.50;99.90
20726;DHT22;10524;48.132;8.518;2023-04-24T15:25:31;11.20;99.90
20726;DHT22;10524;48.132;8.518;2023-04-24T15:27:58;11.00;99.90
20726;DHT22;10524;48.132;8.518;2023-04-24T15:30:24;10.50;99.90
20726;DHT22;10524;48.132;8.518;2023-04-24T15:32:50;9.70;99.90
20726;DHT22;10524;48.132;8.518;2023-04-24T15:35:15;9.10;99.90
20726;DHT22;10524;48.132;8.518;2023-04-24T15:37:41;8.60;99.90
20726;DHT22;10524;48.132;8.518;2023-04-24T15:40:08;8.20;99.90
20726;DHT22;10524;48.132;8.518;2023-04-24T15:42:35;7.70;99.90
20726;DHT22;10524;48.132;8.518;2023-04-24T15:45:01;7.40;99.90
20726;DHT22;10524;48.132;8.518;2023-04-24T15:47:27;7.20;99.90
20726;DHT22;10524;48.132;8.518;2023-04-24T15:49:53;7.20;99.90
20726;DHT22;10524;48.132;8.518;2023-04-24T15:52:19;7.10;99.90